createdAt,value
2024-01-27T00:04:13.690Z,14.10
2024-01-27T00:09:16.856Z,9.00
2024-01-27T00:14:19.955Z,9.30
2024-01-27T00:19:23.572Z,15.80
2024-01-27T00:24:26.967Z,7.00
2024-01-27T00:29:30.105Z,11.40
2024-01-27T00:34:33.199Z,15.00
2024-01-27T00:39:36.286Z,13.20
2024-01-27T00:44:39.590Z,12.30
2024-01-27T00:49:43.090Z,16.50
2024-01-27T00:54:46.158Z,13.90
2024-01-27T00:59:49.435Z,14.90
2024-01-27T01:04:52.536Z,12.50
2024-01-27T01:09:55.647Z,13.20
2024-01-27T01:14:58.966Z,8.40
2024-01-27T01:20:02.265Z,11.40
2024-01-27T01:25:06.013Z,11.00
2024-01-27T01:30:10.753Z,13.10
2024-01-27T01:35:14.287Z,16.50
2024-01-27T01:40:17.386Z,14.20
2024-01-27T01:45:21.822Z,17.70
2024-01-27T01:50:25.130Z,10.30
2024-01-27T01:55:28.236Z,12.80
2024-01-27T02:00:31.753Z,12.80
2024-01-27T02:05:35.840Z,14.70
2024-01-27T02:10:39.021Z,13.00
2024-01-27T02:15:42.152Z,12.60
2024-01-27T02:20:45.686Z,6.90
2024-01-27T02:25:49.040Z,9.70
2024-01-27T02:30:52.256Z,8.90
2024-01-27T02:35:55.419Z,5.10
2024-01-27T02:40:58.681Z,8.30
2024-01-27T02:46:01.677Z,13.10
2024-01-27T02:51:05.500Z,7.60
2024-01-27T02:56:11.476Z,7.10
2024-01-27T03:01:14.541Z,8.90
2024-01-27T03:06:17.754Z,6.80
2024-01-27T03:11:21.012Z,6.80
2024-01-27T03:16:24.131Z,8.40
2024-01-27T03:21:27.318Z,6.10
2024-01-27T03:26:31.018Z,4.90
2024-01-27T03:31:37.895Z,9.40
2024-01-27T03:36:41.716Z,5.30
2024-01-27T03:41:44.892Z,6.80
2024-01-27T03:46:49.434Z,8.30
2024-01-27T03:51:52.540Z,7.00
2024-01-27T03:56:56.140Z,5.00
2024-01-27T04:01:59.314Z,2.30
2024-01-27T04:07:03.381Z,4.10
2024-01-27T04:12:07.173Z,8.30
2024-01-27T04:17:10.242Z,4.80
2024-01-27T04:22:13.753Z,4.70
2024-01-27T04:27:16.993Z,2.70
2024-01-27T04:32:20.225Z,5.90
2024-01-27T04:37:23.287Z,4.60
2024-01-27T04:42:26.690Z,2.60
2024-01-27T04:47:29.934Z,4.30
2024-01-27T04:52:33.038Z,5.80
2024-01-27T04:57:36.302Z,5.10
2024-01-27T05:02:43.282Z,3.00
2024-01-27T05:07:46.453Z,4.00
2024-01-27T05:12:49.582Z,3.50
2024-01-27T05:17:52.940Z,5.10
2024-01-27T05:22:56.195Z,2.70
2024-01-27T05:27:59.416Z,2.60
2024-01-27T05:33:02.812Z,5.90
2024-01-27T05:38:06.042Z,5.60
2024-01-27T05:43:09.455Z,1.70
2024-01-27T05:48:12.862Z,3.30
2024-01-27T05:53:16.175Z,3.40
2024-01-27T05:58:22.362Z,5.10
2024-01-27T06:03:26.037Z,3.10
2024-01-27T06:08:29.182Z,5.10
2024-01-27T06:13:34.263Z,4.70
2024-01-27T06:18:38.133Z,2.50
2024-01-27T06:23:41.388Z,3.70
2024-01-27T06:28:44.508Z,3.30
2024-01-27T06:33:47.787Z,3.00
2024-01-27T06:38:51.080Z,4.50
2024-01-27T06:43:54.218Z,3.00
2024-01-27T06:48:57.377Z,2.30
2024-01-27T06:54:00.661Z,3.90
2024-01-27T06:59:03.763Z,7.50
2024-01-27T07:04:07.146Z,5.00
2024-01-27T07:09:10.624Z,7.10
2024-01-27T07:14:13.802Z,3.20
2024-01-27T07:19:17.815Z,2.70
2024-01-27T07:24:21.370Z,3.60
2024-01-27T07:29:24.564Z,4.60
2024-01-27T07:34:27.623Z,8.00
2024-01-27T07:39:30.916Z,6.30
2024-01-27T07:44:33.988Z,4.40
2024-01-27T07:49:37.208Z,4.00
2024-01-27T07:54:41.531Z,6.70
2024-01-27T07:59:44.748Z,4.40
2024-01-27T08:04:47.885Z,5.50
2024-01-27T08:09:50.965Z,6.30
2024-01-27T08:14:55.239Z,6.50
2024-01-27T08:19:58.325Z,6.70
2024-01-27T08:25:01.642Z,6.20
2024-01-27T08:30:05.791Z,6.30
2024-01-27T08:35:11.448Z,3.30
2024-01-27T08:40:15.972Z,3.40
2024-01-27T08:45:19.444Z,4.50
2024-01-27T08:50:23.223Z,6.00
2024-01-27T08:55:26.358Z,5.30
2024-01-27T09:00:29.956Z,4.90
2024-01-27T09:05:33.267Z,5.70
2024-01-27T09:10:36.476Z,8.20
2024-01-27T09:15:40.016Z,5.80
2024-01-27T09:20:43.720Z,3.30
2024-01-27T09:25:46.946Z,6.60
2024-01-27T09:30:50.470Z,4.30
2024-01-27T09:35:53.716Z,4.50
2024-01-27T09:40:57.387Z,8.00
2024-01-27T09:46:00.744Z,4.60
2024-01-27T09:51:06.375Z,3.10
2024-01-27T09:56:10.500Z,5.00
2024-01-27T10:01:13.568Z,4.80
2024-01-27T10:06:16.991Z,7.80
2024-01-27T10:11:22.282Z,6.70
2024-01-27T10:16:25.375Z,8.70
2024-01-27T10:21:28.790Z,5.80
2024-01-27T10:26:33.419Z,5.60
2024-01-27T10:31:39.321Z,7.40
2024-01-27T10:36:46.783Z,6.00
2024-01-27T10:41:51.078Z,7.10
2024-01-27T10:46:55.521Z,8.90
2024-01-27T10:52:02.804Z,7.50
2024-01-27T10:57:07.531Z,9.80
2024-01-27T11:02:14.279Z,5.60
2024-01-27T11:07:20.568Z,6.20
2024-01-27T11:12:25.468Z,4.70
2024-01-27T11:17:28.758Z,6.90
2024-01-27T11:22:34.996Z,5.40
2024-01-27T11:27:38.343Z,5.50
2024-01-27T11:32:42.377Z,7.40
2024-01-27T11:37:46.101Z,12.30
2024-01-27T11:42:57.054Z,7.00
2024-01-27T11:48:02.313Z,4.60
2024-01-27T11:53:11.049Z,4.50
2024-01-27T11:58:14.278Z,5.40
2024-01-27T12:03:17.827Z,5.20
2024-01-27T12:08:21.204Z,3.40
2024-01-27T12:13:24.511Z,5.40
2024-01-27T12:18:28.985Z,3.30
2024-01-27T12:23:32.161Z,2.80
2024-01-27T12:28:39.195Z,5.20
2024-01-27T12:33:50.360Z,4.80
2024-01-27T12:39:01.983Z,7.50
2024-01-27T12:44:06.825Z,4.20
2024-01-27T12:49:10.488Z,4.90
2024-01-27T12:54:13.781Z,2.30
2024-01-27T12:59:16.959Z,3.80
2024-01-27T13:04:20.175Z,3.40
2024-01-27T13:09:23.375Z,6.50
2024-01-27T13:14:26.603Z,10.10
2024-01-27T13:19:30.243Z,4.90
2024-01-27T13:24:34.032Z,3.20
2024-01-27T13:29:37.171Z,10.00
2024-01-27T13:34:40.499Z,6.70
2024-01-27T13:39:43.721Z,3.50
2024-01-27T13:44:47.742Z,5.40
2024-01-27T13:49:51.364Z,6.20
2024-01-27T13:54:54.672Z,4.80
2024-01-27T13:59:58.199Z,7.20
2024-01-27T14:05:01.322Z,10.60
2024-01-27T14:10:05.677Z,8.50
2024-01-27T14:15:09.944Z,4.50
2024-01-27T14:20:13.729Z,6.40
2024-01-27T14:25:17.190Z,6.00
2024-01-27T14:30:20.436Z,6.50
2024-01-27T14:35:23.827Z,3.60
2024-01-27T14:40:27.136Z,3.00
2024-01-27T14:45:31.635Z,5.60
2024-01-27T14:50:34.956Z,6.20
2024-01-27T14:55:38.714Z,6.40
2024-01-27T15:00:42.141Z,6.60
2024-01-27T15:05:45.692Z,7.60
2024-01-27T15:10:49.008Z,8.00
2024-01-27T15:15:52.187Z,8.90
2024-01-27T15:20:55.357Z,6.90
2024-01-27T15:25:58.603Z,2.90
2024-01-27T15:31:02.019Z,5.60
2024-01-27T15:36:05.645Z,6.20
2024-01-27T15:41:09.770Z,5.90
2024-01-27T15:46:13.011Z,7.80
2024-01-27T15:51:16.642Z,6.20
2024-01-27T15:56:19.819Z,5.00
2024-01-27T16:01:23.158Z,2.70
2024-01-27T16:06:26.499Z,4.60
2024-01-27T16:11:29.752Z,2.30
2024-01-27T16:16:32.862Z,7.50
2024-01-27T16:21:36.005Z,6.00
2024-01-27T16:26:39.175Z,7.30
2024-01-27T16:31:42.296Z,9.70
2024-01-27T16:36:46.325Z,7.10
2024-01-27T16:41:49.449Z,10.80
2024-01-27T16:46:52.653Z,6.90
2024-01-27T16:51:55.858Z,7.90
2024-01-27T16:56:59.046Z,12.80
2024-01-27T17:02:02.387Z,10.40
2024-01-27T17:07:05.490Z,5.20
2024-01-27T17:12:12.008Z,6.20
2024-01-27T17:17:15.192Z,7.10
2024-01-27T17:22:18.507Z,11.00
2024-01-27T17:27:21.740Z,10.90
2024-01-27T17:32:25.058Z,9.70
2024-01-27T17:37:28.447Z,12.00
2024-01-27T17:42:31.585Z,16.70
2024-01-27T17:47:39.218Z,15.10
2024-01-27T17:52:42.390Z,10.70
2024-01-27T17:57:45.820Z,9.70
2024-01-27T18:02:49.414Z,14.50
2024-01-27T18:07:52.528Z,7.60
2024-01-27T18:12:55.792Z,13.70
2024-01-27T18:17:59.300Z,11.10
2024-01-27T18:23:02.876Z,8.30
2024-01-27T18:28:06.564Z,5.60
2024-01-27T18:33:09.842Z,9.90
2024-01-27T18:38:13.239Z,7.90
2024-01-27T18:43:16.437Z,6.70
2024-01-27T18:48:21.171Z,5.80
2024-01-27T18:53:24.443Z,8.30
2024-01-27T18:58:27.610Z,9.20
2024-01-27T19:03:31.019Z,13.60
2024-01-27T19:08:34.247Z,9.30
2024-01-27T19:13:37.357Z,12.70
2024-01-27T19:18:41.090Z,15.00
2024-01-27T19:23:44.390Z,7.10
2024-01-27T19:28:47.807Z,16.20
2024-01-27T19:33:51.088Z,9.80
2024-01-27T19:38:54.629Z,15.10
2024-01-27T19:43:57.926Z,17.50
2024-01-27T19:49:02.677Z,13.60
2024-01-27T19:54:08.566Z,10.30
2024-01-27T19:59:13.982Z,14.80
2024-01-27T20:04:18.129Z,17.70
2024-01-27T20:09:28.200Z,10.30
2024-01-27T20:14:31.553Z,19.60
2024-01-27T20:19:34.931Z,22.30
2024-01-27T20:24:38.468Z,11.90
2024-01-27T20:29:41.708Z,17.50
2024-01-27T20:34:47.906Z,15.50
2024-01-27T20:39:51.280Z,17.60
2024-01-27T20:44:56.925Z,17.20
2024-01-27T20:50:04.443Z,20.30
2024-01-27T20:55:09.777Z,20.30
2024-01-27T21:00:13.483Z,24.70
2024-01-27T21:05:16.571Z,18.30
2024-01-27T21:10:19.728Z,20.30
2024-01-27T21:15:22.861Z,15.60
2024-01-27T21:20:25.995Z,18.30
2024-01-27T21:25:29.215Z,14.90
2024-01-27T21:30:32.792Z,15.30
2024-01-27T21:35:36.030Z,12.20
2024-01-27T21:40:42.821Z,17.80
2024-01-27T21:45:52.996Z,17.60
2024-01-27T21:50:59.990Z,18.30
2024-01-27T21:56:04.340Z,20.60
2024-01-27T22:01:08.030Z,19.00
2024-01-27T22:06:11.489Z,15.00
2024-01-27T22:11:14.691Z,18.70
2024-01-27T22:16:17.902Z,22.50
2024-01-27T22:21:21.047Z,14.50
2024-01-27T22:26:24.748Z,23.70
2024-01-27T22:31:32.040Z,17.10
2024-01-27T22:36:36.061Z,19.30
2024-01-27T22:41:41.249Z,27.50
2024-01-27T22:46:44.553Z,13.80
2024-01-27T22:51:50.166Z,21.30
2024-01-27T22:56:53.543Z,18.80
2024-01-27T23:01:56.714Z,13.80
2024-01-27T23:07:00.078Z,15.90
2024-01-27T23:12:03.225Z,29.20
2024-01-27T23:17:06.268Z,16.80
2024-01-27T23:22:09.276Z,24.10
2024-01-27T23:27:12.308Z,22.20
2024-01-27T23:32:15.399Z,18.70
2024-01-27T23:37:18.414Z,14.50
2024-01-27T23:42:21.647Z,13.50
2024-01-27T23:47:24.830Z,18.30
2024-01-27T23:52:28.970Z,17.60
2024-01-27T23:57:32.640Z,19.10
